ilmateenistus.ee keskkonnaagentuur.ee
EETN Tallinn
FTEO31 EETN 212300
TAF EETN 212323Z 2200/2224 23018G30KT 9999 BKN015 TEMPO 2200/2205
    26025G45KT 3000 SHRA BKN007 BKN015CB TEMPO 2209/2215 27025G35KT BECMG
    2218/2220 23012KT TEMPO 2221/2224 4000 RA BKN010 OVC018=

METAR EETN 220150Z 23021G34KT 3500 SHRA SCT017CB BKN020 BKN034 06/04 Q0972=
Tallinn
EEKA Kärdla
METAR EEKA 220150Z NIL=
Kärdla
EEKE Kuressaare
METAR EEKE 220150Z AUTO 26014G26KT 210V310 9999NDV SCT034 BKN042 09/03 Q0979=
Kuressaare
EEPU Pärnu
METAR EEPU 220150Z NIL=
Pärnu
EETU Tartu
METAR EETU 220150Z AUTO 22021KT 9999 NCD 08/02 Q0978=
Tartu
EEEI Ämari
SPECI EEEI 220154Z AUTO 24019G29KT 9999 -RA FEW016/// SCT018/// OVC021/// 07/05 Q0973=
Ämari